Time;durP1;ratioP1;P1;durP2;ratioP2;P2;SDS_P1;SDS_P2;PMS_P1;PMS_P2;Temp;Humidity;BMP_temperature;BMP_pressure;BME280_temperature;BME280_humidity;BME280_pressure;Samples;Min_cycle;Max_cycle;Signal;HPM_P1;HPM_P2
2023/07/28 00:02:02;;;;;;;30.30;5.60;;;27.30;54.60;;;;;;5023496;28;20209;-71
2023/07/28 00:04:29;;;;;;;33.07;5.83;;;27.20;54.50;;;;;;5024513;28;20217;-66
2023/07/28 00:06:56;;;;;;;43.37;6.63;;;27.20;54.60;;;;;;5024655;28;20197;-71
2023/07/28 00:09:23;;;;;;;31.27;6.07;;;27.20;54.60;;;;;;5020247;28;20193;-71
2023/07/28 00:11:50;;;;;;;32.00;5.33;;;27.20;54.60;;;;;;5024574;28;20194;-67
2023/07/28 00:14:17;;;;;;;48.90;7.17;;;27.20;54.60;;;;;;5023295;28;20193;-71
2023/07/28 00:16:46;;;;;;;30.53;5.50;;;27.20;54.60;;;;;;5024462;28;20563;-71
2023/07/28 00:19:12;;;;;;;28.80;5.17;;;27.20;54.70;;;;;;5015102;28;20916;-71
2023/07/28 00:21:40;;;;;;;28.93;5.63;;;27.20;54.70;;;;;;5023756;28;20270;-72
2023/07/28 00:24:06;;;;;;;33.70;5.43;;;27.20;54.60;;;;;;5022690;28;20957;-72
2023/07/28 00:26:34;;;;;;;39.80;6.43;;;27.20;54.70;;;;;;5022116;28;20240;-71
2023/07/28 00:29:01;;;;;;;30.33;5.60;;;27.20;54.70;;;;;;5022194;28;20237;-70
2023/07/28 00:31:28;;;;;;;31.80;5.53;;;27.10;54.60;;;;;;5023557;28;20201;-71
2023/07/28 00:33:56;;;;;;;45.10;6.93;;;27.10;54.60;;;;;;5023428;28;20227;-71
2023/07/28 00:36:23;;;;;;;25.90;5.13;;;27.20;54.70;;;;;;5028745;28;20204;-67
2023/07/28 00:38:50;;;;;;;40.47;6.60;;;27.20;54.70;;;;;;5027096;28;20942;-70
2023/07/28 00:41:17;;;;;;;35.27;5.90;;;27.20;54.70;;;;;;5025572;28;20211;-69
2023/07/28 00:43:44;;;;;;;32.57;5.77;;;27.20;54.70;;;;;;5026235;28;20200;-70
2023/07/28 00:46:11;;;;;;;25.97;4.93;;;27.20;54.70;;;;;;5026452;28;20232;-65
2023/07/28 00:48:39;;;;;;;31.77;5.63;;;27.20;54.70;;;;;;5024157;28;20211;-65
2023/07/28 00:51:09;;;;;;;38.57;6.07;;;27.10;55.30;;;;;;5025255;28;20208;-65
2023/07/28 00:53:35;;;;;;;33.13;5.50;;;27.10;54.70;;;;;;5026751;28;20201;-64
2023/07/28 00:56:03;;;;;;;27.57;5.30;;;27.10;54.60;;;;;;5026117;28;20224;-66
2023/07/28 00:58:31;;;;;;;26.00;4.90;;;27.10;54.70;;;;;;5024713;28;20208;-63
2023/07/28 01:00:58;;;;;;;30.87;5.53;;;27.10;54.70;;;;;;5026755;28;20201;-65
2023/07/28 01:03:25;;;;;;;34.07;5.80;;;27.10;54.70;;;;;;5027139;28;20207;-63
2023/07/28 01:06:00;;;;;;;35.43;5.97;;;27.10;54.70;;;;;;5025867;28;20671;-64
2023/07/28 01:08:32;;;;;;;35.87;5.97;;;27.10;54.70;;;;;;5026831;28;20374;-63
2023/07/28 01:10:59;;;;;;;31.50;5.40;;;27.10;54.70;;;;;;5026171;27;20205;-62
2023/07/28 01:13:25;;;;;;;26.67;4.90;;;27.10;54.70;;;;;;5026841;28;20261;-63
2023/07/28 01:15:52;;;;;;;29.47;5.40;;;27.10;54.70;;;;;;5026706;28;20949;-63
2023/07/28 01:18:19;;;;;;;39.00;6.13;;;27.10;54.80;;;;;;5027182;28;20201;-63
2023/07/28 01:20:47;;;;;;;38.00;6.00;;;27.10;54.70;;;;;;5024852;28;20564;-63
2023/07/28 01:23:20;;;;;;;28.80;5.47;;;27.10;54.80;;;;;;5026554;28;20220;-63
2023/07/28 01:26:01;;;;;;;40.53;6.17;;;27.10;54.80;;;;;;5024860;28;20216;-68
2023/07/28 01:28:34;;;;;;;30.10;5.53;;;27.10;54.80;;;;;;5026157;27;20201;-66
2023/07/28 01:31:02;;;;;;;33.37;5.90;;;27.00;54.70;;;;;;5032403;28;20226;-63
2023/07/28 01:33:30;;;;;;;35.33;5.83;;;27.10;54.80;;;;;;5046510;28;20212;-62
2023/07/28 01:35:58;;;;;;;37.33;6.20;;;27.00;54.80;;;;;;5046049;28;20278;-62
2023/07/28 01:38:25;;;;;;;48.33;7.10;;;27.00;54.80;;;;;;5036492;28;20216;-65
2023/07/28 01:40:52;;;;;;;38.77;6.27;;;27.00;54.70;;;;;;5023874;28;20198;-62
2023/07/28 01:43:19;;;;;;;42.23;6.67;;;27.00;54.80;;;;;;5024127;28;20208;-62
2023/07/28 01:45:47;;;;;;;24.60;4.80;;;27.00;54.80;;;;;;5026132;28;20232;-63
2023/07/28 01:48:14;;;;;;;32.83;5.63;;;27.00;54.80;;;;;;5024745;28;20561;-62
2023/07/28 01:50:40;;;;;;;29.53;5.70;;;27.00;54.80;;;;;;5024638;27;20213;-62
2023/07/28 01:53:08;;;;;;;30.43;5.23;;;27.00;54.80;;;;;;5025448;28;20204;-64
2023/07/28 01:55:38;;;;;;;38.67;6.10;;;27.00;54.80;;;;;;5025398;28;20221;-63
2023/07/28 01:58:05;;;;;;;61.07;8.27;;;27.00;54.90;;;;;;5026526;28;20208;-63
2023/07/28 02:00:31;;;;;;;52.70;7.47;;;27.00;54.90;;;;;;5023164;28;20657;-63
2023/07/28 02:03:01;;;;;;;34.10;5.87;;;27.00;54.90;;;;;;5025573;28;20209;-62
2023/07/28 02:05:29;;;;;;;27.87;5.53;;;27.00;54.90;;;;;;5026098;28;20273;-65
2023/07/28 02:07:56;;;;;;;27.47;5.03;;;27.00;54.90;;;;;;5025537;28;20213;-63
2023/07/28 02:10:24;;;;;;;32.03;5.80;;;27.00;54.90;;;;;;5022901;28;20197;-63
2023/07/28 02:12:51;;;;;;;30.47;5.63;;;27.00;54.90;;;;;;5025291;28;20205;-64
2023/07/28 02:15:18;;;;;;;48.53;7.30;;;27.00;55.00;;;;;;5024721;28;20238;-63
2023/07/28 02:17:45;;;;;;;34.47;5.90;;;27.00;54.90;;;;;;5024991;28;20573;-64
2023/07/28 02:20:15;;;;;;;36.73;6.47;;;27.00;54.90;;;;;;5022873;28;20201;-63
2023/07/28 02:22:42;;;;;;;52.83;7.53;;;27.00;54.90;;;;;;5022747;28;20324;-63
2023/07/28 02:25:10;;;;;;;28.57;5.37;;;27.00;55.00;;;;;;5021721;28;20578;-63
2023/07/28 02:27:37;;;;;;;23.27;4.70;;;27.00;54.90;;;;;;5024551;28;20201;-63
2023/07/28 02:30:05;;;;;;;47.93;7.20;;;27.00;55.00;;;;;;5023902;28;20196;-64
2023/07/28 02:32:32;;;;;;;31.73;5.70;;;27.00;55.00;;;;;;5024373;28;20902;-64
2023/07/28 02:34:59;;;;;;;29.80;5.47;;;27.00;54.90;;;;;;5025887;28;20189;-63
2023/07/28 02:37:28;;;;;;;36.33;5.87;;;27.00;55.00;;;;;;5025455;28;20205;-63
2023/07/28 02:39:54;;;;;;;31.27;5.73;;;27.00;54.90;;;;;;5021058;28;20219;-63
2023/07/28 02:42:23;;;;;;;22.73;4.73;;;27.00;54.90;;;;;;5024750;28;20201;-65
2023/07/28 02:44:50;;;;;;;33.00;5.87;;;26.90;54.90;;;;;;5023468;28;20204;-62
2023/07/28 02:47:17;;;;;;;50.67;7.17;;;27.00;55.00;;;;;;5023632;28;20244;-63
2023/07/28 02:49:44;;;;;;;32.07;5.67;;;27.00;55.00;;;;;;5022707;28;20231;-63
2023/07/28 02:52:11;;;;;;;39.93;6.40;;;27.00;54.90;;;;;;5025568;28;20204;-64
2023/07/28 02:54:39;;;;;;;26.53;5.40;;;27.00;54.90;;;;;;5023553;28;20207;-63
2023/07/28 02:57:06;;;;;;;32.30;5.90;;;27.00;54.90;;;;;;5024103;28;22237;-62
2023/07/28 02:59:33;;;;;;;35.10;5.97;;;27.00;54.90;;;;;;5023839;28;20661;-64
2023/07/28 03:02:00;;;;;;;29.60;5.40;;;27.00;54.90;;;;;;5025345;28;20212;-67
2023/07/28 03:04:27;;;;;;;32.07;5.43;;;27.00;55.00;;;;;;5025318;28;20204;-63
2023/07/28 03:06:54;;;;;;;27.47;5.10;;;26.90;54.90;;;;;;5025194;28;20720;-66
2023/07/28 03:09:21;;;;;;;38.43;6.23;;;26.90;55.00;;;;;;5023200;28;20208;-66
2023/07/28 03:11:49;;;;;;;50.27;7.37;;;27.00;55.00;;;;;;5022972;28;20552;-63
2023/07/28 03:14:17;;;;;;;31.17;5.63;;;26.90;55.00;;;;;;5024472;28;20210;-63
2023/07/28 03:16:43;;;;;;;35.40;6.20;;;26.90;55.00;;;;;;5022817;28;20212;-64
2023/07/28 03:19:10;;;;;;;32.50;5.83;;;26.90;55.00;;;;;;5024300;28;20212;-63
2023/07/28 03:21:37;;;;;;;32.77;6.03;;;26.90;55.00;;;;;;5024822;28;20563;-63
2023/07/28 03:24:05;;;;;;;45.87;6.83;;;26.90;55.00;;;;;;5043041;28;20204;-66
2023/07/28 03:26:31;;;;;;;28.53;5.37;;;26.90;55.00;;;;;;5023780;28;20240;-66
2023/07/28 03:29:00;;;;;;;38.53;6.43;;;26.90;55.30;;;;;;5024313;28;20205;-62
2023/07/28 03:31:26;;;;;;;47.07;6.93;;;26.90;55.00;;;;;;5024543;28;20205;-66
2023/07/28 03:33:53;;;;;;;39.37;6.47;;;26.90;55.00;;;;;;5025003;28;20205;-69
2023/07/28 03:36:20;;;;;;;24.50;5.00;;;26.90;55.00;;;;;;5024035;28;20205;-65
2023/07/28 03:38:47;;;;;;;25.40;5.27;;;26.90;55.70;;;;;;5024672;28;20590;-63
2023/07/28 03:41:14;;;;;;;31.57;6.07;;;26.90;55.10;;;;;;5023848;28;20212;-63
2023/07/28 03:43:42;;;;;;;36.47;6.23;;;26.90;55.10;;;;;;5024411;28;20204;-67
2023/07/28 03:46:10;;;;;;;41.83;6.73;;;26.90;55.10;;;;;;5021204;28;20227;-62
2023/07/28 03:48:37;;;;;;;34.97;5.87;;;26.90;55.10;;;;;;5023500;28;20204;-63
2023/07/28 03:51:04;;;;;;;35.77;6.00;;;26.90;55.10;;;;;;5023777;28;20211;-63
2023/07/28 03:53:31;;;;;;;23.57;4.83;;;26.90;55.10;;;;;;5024644;28;20227;-63
2023/07/28 03:55:58;;;;;;;57.20;8.20;;;26.90;55.10;;;;;;5022603;28;20234;-62
2023/07/28 03:58:26;;;;;;;49.30;7.03;;;26.90;55.10;;;;;;5019181;28;20211;-63
2023/07/28 04:00:53;;;;;;;30.13;5.80;;;26.90;55.10;;;;;;5027576;28;20656;-65
2023/07/28 04:03:22;;;;;;;51.80;7.70;;;26.90;55.10;;;;;;5023156;28;20201;-63
2023/07/28 04:05:48;;;;;;;31.17;5.67;;;26.90;55.10;;;;;;5022947;28;20221;-62
2023/07/28 04:08:15;;;;;;;34.03;5.97;;;26.90;55.20;;;;;;5023799;28;20687;-63
2023/07/28 04:10:42;;;;;;;26.67;5.07;;;26.90;55.10;;;;;;5023151;28;20579;-62
2023/07/28 04:13:09;;;;;;;40.80;6.40;;;26.90;55.10;;;;;;5025604;28;20197;-62
2023/07/28 04:15:36;;;;;;;29.93;5.80;;;26.90;55.20;;;;;;5029209;28;20204;-64
2023/07/28 04:18:03;;;;;;;41.73;6.73;;;26.90;55.20;;;;;;5037071;28;20205;-62
2023/07/28 04:20:31;;;;;;;33.90;5.93;;;26.90;55.20;;;;;;5025690;28;20660;-63
2023/07/28 04:22:58;;;;;;;39.13;6.40;;;26.90;55.20;;;;;;5027170;28;20296;-65
2023/07/28 04:25:25;;;;;;;36.90;6.33;;;26.90;55.20;;;;;;5026475;28;20209;-70
2023/07/28 04:27:52;;;;;;;25.60;5.30;;;26.90;55.20;;;;;;5026959;28;20225;-63
2023/07/28 04:30:19;;;;;;;38.80;6.40;;;26.90;55.20;;;;;;5024333;28;20211;-62
2023/07/28 04:32:45;;;;;;;32.60;5.47;;;26.90;55.20;;;;;;5025990;28;20664;-68
2023/07/28 04:35:13;;;;;;;38.77;6.37;;;26.90;55.20;;;;;;5025100;28;20201;-66
2023/07/28 04:37:42;;;;;;;49.40;7.27;;;26.90;55.20;;;;;;5024862;28;20292;-63
2023/07/28 04:40:09;;;;;;;47.57;7.37;;;26.90;55.20;;;;;;5025937;28;20644;-67
2023/07/28 04:42:37;;;;;;;47.83;7.17;;;26.90;55.20;;;;;;5025437;28;20200;-71
2023/07/28 04:45:04;;;;;;;38.17;6.53;;;26.90;55.20;;;;;;5024673;28;20204;-64
2023/07/28 04:47:31;;;;;;;28.03;5.40;;;26.90;55.20;;;;;;5017232;28;20310;-62
2023/07/28 04:49:58;;;;;;;33.27;5.97;;;26.90;55.20;;;;;;5025824;28;20684;-62
2023/07/28 04:52:25;;;;;;;25.43;4.97;;;26.90;55.20;;;;;;5024720;28;20205;-63
2023/07/28 04:54:53;;;;;;;39.70;6.30;;;26.90;55.20;;;;;;5026104;27;20653;-63
2023/07/28 04:57:20;;;;;;;34.67;6.37;;;26.90;55.30;;;;;;5027989;28;20225;-63
2023/07/28 04:59:47;;;;;;;38.40;6.57;;;26.90;55.20;;;;;;5034000;28;20276;-65
2023/07/28 05:02:14;;;;;;;39.33;6.47;;;26.90;55.20;;;;;;5038852;27;20207;-63
2023/07/28 05:04:40;;;;;;;19.43;4.70;;;26.90;55.20;;;;;;5026471;28;20858;-63
2023/07/28 05:07:07;;;;;;;34.40;6.27;;;26.90;55.30;;;;;;5026993;28;20235;-63
2023/07/28 05:09:34;;;;;;;28.17;5.80;;;26.90;55.30;;;;;;5029670;28;20651;-63
2023/07/28 05:12:03;;;;;;;34.60;6.13;;;26.90;55.30;;;;;;5041378;28;20211;-63
2023/07/28 05:14:29;;;;;;;33.60;6.07;;;26.90;55.30;;;;;;5025181;28;20197;-65
2023/07/28 05:16:56;;;;;;;34.07;5.90;;;26.90;55.30;;;;;;5026694;28;20197;-62
2023/07/28 05:19:23;;;;;;;36.40;6.67;;;26.90;55.30;;;;;;5027048;28;20189;-63
2023/07/28 05:21:50;;;;;;;27.80;5.50;;;26.90;55.30;;;;;;5029620;27;20207;-64
2023/07/28 05:24:17;;;;;;;24.73;5.17;;;26.90;55.30;;;;;;5033447;28;20193;-64
2023/07/28 05:26:44;;;;;;;27.03;5.60;;;26.90;55.30;;;;;;5016481;27;20227;-63
2023/07/28 05:29:12;;;;;;;23.10;5.03;;;26.90;55.40;;;;;;5025749;28;20201;-64
2023/07/28 05:31:39;;;;;;;29.40;5.67;;;26.90;55.30;;;;;;5037980;28;20648;-66
2023/07/28 05:34:06;;;;;;;29.33;5.93;;;26.90;55.40;;;;;;5027027;28;20677;-64
2023/07/28 05:36:33;;;;;;;35.60;6.43;;;26.90;55.30;;;;;;5030515;27;20205;-63
2023/07/28 05:39:00;;;;;;;19.03;5.30;;;26.90;55.30;;;;;;5028600;27;20240;-64
2023/07/28 05:41:27;;;;;;;28.83;6.70;;;26.90;55.40;;;;;;5025349;28;20209;-64
2023/07/28 05:43:54;;;;;;;40.93;8.50;;;26.90;55.50;;;;;;5024152;28;20913;-64
2023/07/28 05:46:22;;;;;;;48.70;9.03;;;26.90;55.50;;;;;;5023212;28;20233;-63
2023/07/28 05:48:49;;;;;;;47.10;9.30;;;26.90;55.50;;;;;;5025266;28;20664;-64
2023/07/28 05:51:16;;;;;;;49.27;8.67;;;26.90;55.50;;;;;;5019804;28;20209;-63
2023/07/28 05:53:43;;;;;;;49.37;9.27;;;26.90;55.50;;;;;;5025626;28;20201;-64
2023/07/28 05:56:10;;;;;;;32.30;7.33;;;26.90;55.50;;;;;;5025814;28;20221;-63
2023/07/28 05:58:37;;;;;;;31.63;6.77;;;26.90;55.60;;;;;;5026055;28;20641;-64
2023/07/28 06:01:04;;;;;;;27.30;6.37;;;26.90;55.50;;;;;;5027396;28;20194;-63
2023/07/28 06:03:32;;;;;;;28.60;6.43;;;26.90;55.60;;;;;;5024384;28;20212;-64
2023/07/28 06:05:59;;;;;;;36.77;6.90;;;26.90;55.60;;;;;;5027119;28;20840;-65
2023/07/28 06:08:25;;;;;;;30.70;6.70;;;26.90;55.70;;;;;;5023910;28;20220;-63
2023/07/28 06:10:52;;;;;;;42.83;7.60;;;26.90;55.70;;;;;;5025077;28;20204;-63
2023/07/28 06:13:19;;;;;;;22.80;5.50;;;26.90;55.60;;;;;;5024541;28;20202;-64
2023/07/28 06:15:47;;;;;;;23.13;5.63;;;26.90;55.60;;;;;;5026156;28;20703;-63
2023/07/28 06:18:16;;;;;;;44.73;8.03;;;26.80;55.60;;;;;;5025526;28;20215;-63
2023/07/28 06:20:45;;;;;;;20.97;4.97;;;26.90;55.70;;;;;;5026501;28;20203;-63
2023/07/28 06:23:12;;;;;;;37.57;6.63;;;26.80;55.60;;;;;;5024044;28;20257;-63
2023/07/28 06:25:43;;;;;;;31.17;6.03;;;26.80;55.60;;;;;;5025154;28;20205;-67
2023/07/28 06:28:10;;;;;;;25.60;5.73;;;26.80;55.70;;;;;;5025406;28;20708;-67
2023/07/28 06:30:37;;;;;;;30.60;6.50;;;26.80;55.60;;;;;;5024433;28;20212;-64
2023/07/28 06:33:06;;;;;;;45.90;7.73;;;26.80;55.70;;;;;;5025138;28;20213;-64
2023/07/28 06:35:33;;;;;;;21.63;5.50;;;26.80;55.70;;;;;;5006183;28;20296;-64
2023/07/28 06:38:02;;;;;;;28.57;6.23;;;26.80;55.70;;;;;;5012789;28;20207;-65
2023/07/28 06:40:29;;;;;;;30.87;6.17;;;26.80;55.20;;;;;;5024130;28;20197;-66
2023/07/28 06:42:56;;;;;;;29.07;5.80;;;26.80;55.70;;;;;;5025102;28;20200;-64
2023/07/28 06:45:23;;;;;;;22.87;5.73;;;26.80;55.70;;;;;;5024599;28;20657;-64
2023/07/28 06:47:51;;;;;;;28.13;5.97;;;26.80;55.80;;;;;;5026071;28;20217;-63
2023/07/28 06:50:18;;;;;;;25.50;5.70;;;26.80;55.70;;;;;;5023539;28;20626;-64
2023/07/28 06:52:45;;;;;;;30.03;6.07;;;26.80;55.70;;;;;;5024781;28;20205;-64
2023/07/28 06:55:13;;;;;;;31.13;6.57;;;26.80;55.80;;;;;;5021494;28;21031;-63
2023/07/28 06:57:40;;;;;;;37.57;6.60;;;26.80;55.80;;;;;;5024575;28;20684;-71
2023/07/28 07:00:09;;;;;;;31.27;6.50;;;26.80;55.80;;;;;;5024180;27;20645;-72
2023/07/28 07:02:36;;;;;;;27.37;5.70;;;26.70;55.80;;;;;;5025613;28;20543;-66
2023/07/28 07:05:03;;;;;;;22.47;5.50;;;26.70;55.70;;;;;;5022789;28;20608;-65
2023/07/28 07:07:30;;;;;;;28.63;5.77;;;26.80;55.90;;;;;;5022214;28;20228;-66
2023/07/28 07:09:57;;;;;;;27.40;6.17;;;26.80;55.80;;;;;;5026855;27;20205;-64
2023/07/28 07:12:25;;;;;;;26.00;5.40;;;26.70;55.70;;;;;;5024336;28;20204;-65
2023/07/28 07:14:52;;;;;;;30.03;6.33;;;26.80;55.80;;;;;;5023386;28;20283;-67
2023/07/28 07:17:19;;;;;;;19.57;5.43;;;26.80;55.80;;;;;;5024661;28;20205;-62
2023/07/28 07:19:45;;;;;;;25.73;5.80;;;26.80;55.80;;;;;;5023640;28;20300;-61
2023/07/28 07:22:12;;;;;;;21.70;5.30;;;26.80;55.90;;;;;;5025732;28;20208;-65
2023/07/28 07:24:39;;;;;;;22.33;5.47;;;26.70;55.80;;;;;;5025859;27;20205;-68
2023/07/28 07:27:10;;;;;;;27.30;5.60;;;26.80;55.90;;;;;;5023390;28;20232;-69
2023/07/28 07:29:39;;;;;;;34.57;6.40;;;26.80;55.90;;;;;;5024855;28;20949;-66
2023/07/28 07:32:07;;;;;;;31.70;6.23;;;26.80;56.00;;;;;;5024165;28;20199;-69
2023/07/28 07:34:36;;;;;;;16.10;5.17;;;26.80;56.00;;;;;;5025692;28;20189;-70
2023/07/28 07:37:03;;;;;;;28.93;5.40;;;26.80;56.00;;;;;;5025565;28;20285;-64
2023/07/28 07:39:30;;;;;;;33.50;6.70;;;26.80;56.00;;;;;;5023980;28;20204;-66
2023/07/28 07:41:58;;;;;;;28.20;5.63;;;26.70;56.00;;;;;;5024361;28;20215;-66
2023/07/28 07:44:25;;;;;;;25.30;5.80;;;26.80;56.00;;;;;;5024379;28;20211;-67
2023/07/28 07:46:53;;;;;;;28.00;5.37;;;26.80;56.00;;;;;;5026751;27;20223;-67
2023/07/28 07:49:19;;;;;;;28.57;6.40;;;26.80;56.70;;;;;;5027969;28;20197;-67
2023/07/28 07:51:46;;;;;;;27.47;5.47;;;26.80;56.00;;;;;;5026752;28;20650;-67
2023/07/28 07:54:15;;;;;;;45.33;6.93;;;26.80;56.00;;;;;;5021991;28;20213;-69
2023/07/28 07:56:42;;;;;;;27.97;5.67;;;26.80;56.00;;;;;;5027804;28;20307;-63
2023/07/28 07:59:09;;;;;;;29.40;6.10;;;26.80;56.00;;;;;;5027941;28;20675;-65
2023/07/28 08:01:36;;;;;;;38.97;6.27;;;26.80;56.00;;;;;;5027929;28;20201;-70
2023/07/28 08:04:04;;;;;;;31.60;5.93;;;26.90;56.10;;;;;;5031501;28;20219;-65
2023/07/28 08:06:31;;;;;;;28.60;5.67;;;26.90;56.10;;;;;;5028637;28;20637;-65
2023/07/28 08:08:59;;;;;;;29.13;6.07;;;26.90;56.10;;;;;;5026783;28;20229;-74
2023/07/28 08:11:26;;;;;;;18.97;5.00;;;26.90;56.10;;;;;;5027963;28;20197;-73
2023/07/28 08:13:53;;;;;;;26.27;5.97;;;26.90;56.10;;;;;;5027124;28;20236;-66
2023/07/28 08:16:20;;;;;;;27.47;5.83;;;26.90;56.10;;;;;;5027622;28;21013;-67
2023/07/28 08:18:47;;;;;;;27.13;5.67;;;26.90;56.10;;;;;;5025794;28;20209;-67
2023/07/28 08:21:15;;;;;;;29.27;5.63;;;26.90;56.10;;;;;;5026702;28;20205;-66
2023/07/28 08:23:42;;;;;;;19.23;5.07;;;26.90;56.10;;;;;;5028475;28;20204;-66
2023/07/28 08:26:09;;;;;;;37.00;6.60;;;26.90;56.10;;;;;;5020705;28;20193;-66
2023/07/28 08:28:35;;;;;;;22.53;5.17;;;27.00;56.10;;;;;;5024151;28;20232;-68
2023/07/28 08:31:04;;;;;;;28.37;5.67;;;26.90;56.10;;;;;;5027219;28;20212;-68
2023/07/28 08:33:30;;;;;;;24.90;5.70;;;26.90;56.10;;;;;;5028637;28;20243;-70
2023/07/28 08:35:57;;;;;;;35.97;6.23;;;26.90;56.10;;;;;;5027155;28;20217;-65
2023/07/28 08:38:26;;;;;;;30.83;5.97;;;27.00;56.10;;;;;;5028746;28;20213;-67
2023/07/28 08:40:53;;;;;;;22.80;4.93;;;26.90;56.10;;;;;;5026978;28;20239;-66
2023/07/28 08:43:20;;;;;;;28.23;5.77;;;27.00;56.10;;;;;;5027128;28;20279;-65
2023/07/28 08:45:47;;;;;;;34.50;6.27;;;27.00;56.10;;;;;;5025250;28;20399;-66
2023/07/28 08:48:14;;;;;;;23.93;5.43;;;26.90;56.10;;;;;;5028028;28;20228;-65
2023/07/28 08:50:41;;;;;;;25.40;5.63;;;27.00;56.10;;;;;;5027731;28;20216;-68
2023/07/28 08:53:10;;;;;;;27.90;5.70;;;27.00;56.10;;;;;;5027487;28;20216;-66
2023/07/28 08:55:39;;;;;;;24.47;5.40;;;27.00;56.80;;;;;;5027386;28;20340;-66
2023/07/28 08:58:16;;;;;;;25.27;5.77;;;26.90;56.00;;;;;;5028053;28;20201;-65
2023/07/28 09:00:44;;;;;;;22.63;5.13;;;27.00;56.20;;;;;;5027871;28;20208;-65
2023/07/28 09:03:11;;;;;;;28.00;5.77;;;27.00;56.10;;;;;;5024869;28;20607;-66
2023/07/28 09:05:40;;;;;;;24.53;5.37;;;27.00;56.10;;;;;;5047506;28;20196;-65
2023/07/28 09:08:07;;;;;;;27.53;5.40;;;26.90;56.10;;;;;;5034956;28;20251;-66
2023/07/28 09:10:43;;;;;;;23.27;5.53;;;26.90;56.10;;;;;;5027672;28;20208;-65
2023/07/28 09:13:10;;;;;;;32.53;6.27;;;27.00;56.20;;;;;;5027590;28;20204;-66
2023/07/28 09:15:37;;;;;;;17.93;4.43;;;27.00;56.70;;;;;;5028245;28;20258;-68
2023/07/28 09:18:04;;;;;;;22.57;4.97;;;27.00;56.10;;;;;;5027882;28;20201;-65
2023/07/28 09:20:35;;;;;;;29.93;5.83;;;27.00;56.10;;;;;;5027222;28;20203;-66
2023/07/28 09:23:03;;;;;;;20.97;5.07;;;26.90;56.10;;;;;;5027618;28;20200;-67
2023/07/28 09:25:30;;;;;;;42.00;6.73;;;27.00;56.10;;;;;;5026145;27;20205;-65
2023/07/28 09:27:59;;;;;;;34.17;6.03;;;26.90;56.10;;;;;;5023063;28;20248;-66
2023/07/28 09:30:26;;;;;;;24.00;5.13;;;26.90;56.10;;;;;;5026534;28;20663;-68
2023/07/28 09:32:55;;;;;;;26.17;5.53;;;26.90;56.10;;;;;;5027421;28;20209;-66
2023/07/28 09:35:23;;;;;;;27.67;5.83;;;27.00;56.20;;;;;;5027134;28;20194;-66
2023/07/28 09:37:54;;;;;;;25.37;5.73;;;27.00;56.20;;;;;;5026221;28;20292;-71
2023/07/28 09:40:23;;;;;;;49.23;7.77;;;27.00;56.20;;;;;;5022885;28;20573;-65
2023/07/28 09:42:52;;;;;;;26.83;5.53;;;27.00;56.20;;;;;;5022278;28;20287;-66
2023/07/28 09:45:21;;;;;;;18.50;4.50;;;27.00;56.30;;;;;;5024850;28;20304;-68
2023/07/28 09:47:51;;;;;;;20.43;4.87;;;27.00;56.30;;;;;;5023345;28;20228;-66
2023/07/28 09:50:24;;;;;;;19.50;5.17;;;27.00;56.30;;;;;;5025938;28;20232;-68
2023/07/28 09:52:59;;;;;;;20.67;5.23;;;27.00;56.30;;;;;;5026435;28;20289;-69
2023/07/28 09:55:27;;;;;;;29.43;6.00;;;27.00;56.40;;;;;;5025956;28;20225;-68
2023/07/28 09:57:56;;;;;;;25.90;5.63;;;27.00;56.30;;;;;;5024817;28;20208;-66
2023/07/28 10:00:24;;;;;;;24.13;5.37;;;27.00;56.40;;;;;;5024883;28;20208;-65
2023/07/28 10:02:52;;;;;;;41.20;6.67;;;27.00;56.40;;;;;;5025451;28;20205;-66
2023/07/28 10:05:20;;;;;;;25.37;5.27;;;27.10;56.50;;;;;;5025967;28;20316;-69
2023/07/28 10:07:49;;;;;;;22.57;5.23;;;27.10;56.50;;;;;;5024288;28;20224;-65
2023/07/28 10:10:17;;;;;;;24.73;5.50;;;27.10;56.50;;;;;;5026171;28;20212;-66
2023/07/28 10:12:47;;;;;;;29.20;5.83;;;27.10;56.50;;;;;;5025242;28;20207;-66
2023/07/28 10:15:16;;;;;;;23.33;5.50;;;27.10;56.50;;;;;;5026591;28;20490;-66
2023/07/28 10:17:49;;;;;;;29.00;5.63;;;27.20;56.50;;;;;;5026048;28;20212;-65
2023/07/28 10:20:34;;;;;;;24.77;5.27;;;27.20;56.50;;;;;;5025480;28;20209;-65
2023/07/28 10:23:11;;;;;;;20.40;5.10;;;27.20;56.50;;;;;;5026675;28;20192;-65
2023/07/28 10:25:40;;;;;;;27.60;5.53;;;27.20;56.50;;;;;;5012545;28;20663;-66
2023/07/28 10:28:07;;;;;;;30.67;5.83;;;27.20;56.50;;;;;;5025360;28;20229;-66
2023/07/28 10:30:39;;;;;;;23.80;4.97;;;27.20;56.50;;;;;;5022519;28;20275;-67
2023/07/28 10:33:09;;;;;;;24.37;5.30;;;27.30;56.60;;;;;;5025824;28;20250;-67
2023/07/28 10:35:36;;;;;;;30.27;5.83;;;27.30;56.50;;;;;;5018985;28;20197;-66
2023/07/28 10:38:32;;;;;;;46.47;7.43;;;27.30;56.50;;;;;;5007430;28;20205;-69
2023/07/28 10:41:23;;;;;;;25.63;5.40;;;27.30;56.60;;;;;;5025099;28;20673;-66
2023/07/28 10:43:49;;;;;;;44.93;7.37;;;27.30;56.50;;;;;;5006962;27;20209;-66
2023/07/28 10:46:18;;;;;;;23.70;5.33;;;27.30;56.40;;;;;;5023276;28;20212;-66
2023/07/28 10:48:48;;;;;;;32.30;5.87;;;27.30;56.40;;;;;;5025245;28;20224;-66
2023/07/28 10:51:21;;;;;;;27.03;5.40;;;27.40;56.50;;;;;;5024776;28;20287;-66
2023/07/28 10:53:51;;;;;;;38.00;6.30;;;27.40;56.50;;;;;;5023848;28;20201;-66
2023/07/28 10:56:19;;;;;;;31.43;6.13;;;27.30;56.40;;;;;;5022063;28;20225;-65
2023/07/28 10:58:47;;;;;;;24.43;5.27;;;27.30;56.30;;;;;;5024642;28;20224;-66
2023/07/28 11:01:16;;;;;;;25.27;5.17;;;27.30;56.30;;;;;;5025287;28;20378;-66
2023/07/28 11:03:43;;;;;;;26.50;5.30;;;27.40;56.40;;;;;;5025677;28;20197;-66
2023/07/28 11:06:13;;;;;;;27.90;5.40;;;27.40;57.00;;;;;;5025836;28;20211;-65
2023/07/28 11:08:40;;;;;;;29.77;5.80;;;27.30;56.30;;;;;;5025959;28;20234;-73
2023/07/28 11:11:07;;;;;;;23.07;5.00;;;27.30;56.30;;;;;;5045255;28;20215;-72
2023/07/28 11:13:34;;;;;;;26.80;5.50;;;27.40;56.40;;;;;;5043869;28;20900;-75
2023/07/28 11:16:01;;;;;;;24.37;5.10;;;27.30;56.30;;;;;;5025269;28;20717;-73
2023/07/28 11:18:28;;;;;;;23.10;4.93;;;27.30;56.30;;;;;;5025840;28;20204;-72
2023/07/28 11:20:55;;;;;;;32.03;5.50;;;27.40;56.40;;;;;;5025300;28;20200;-74
2023/07/28 11:23:23;;;;;;;23.37;4.70;;;27.30;56.30;;;;;;5025254;28;20256;-68
2023/07/28 11:25:50;;;;;;;25.30;4.93;;;27.30;56.40;;;;;;5022664;28;20649;-75
2023/07/28 11:28:20;;;;;;;32.30;6.13;;;27.40;56.50;;;;;;5045268;28;20220;-67
2023/07/28 11:30:47;;;;;;;33.37;5.70;;;27.40;56.60;;;;;;5044748;28;20211;-75
2023/07/28 11:33:14;;;;;;;16.00;4.40;;;27.40;56.70;;;;;;5024939;28;20208;-67
2023/07/28 11:35:45;;;;;;;39.07;6.60;;;27.40;57.30;;;;;;5024210;28;20201;-74
2023/07/28 11:38:13;;;;;;;26.93;5.20;;;27.40;56.70;;;;;;5025756;28;20212;-66
2023/07/28 11:40:42;;;;;;;20.53;4.37;;;27.50;56.70;;;;;;5025864;28;20216;-71
2023/07/28 11:43:09;;;;;;;32.80;5.57;;;27.50;56.70;;;;;;5024321;28;20942;-68
2023/07/28 11:45:36;;;;;;;27.80;5.30;;;27.50;56.60;;;;;;5023041;28;20204;-66
2023/07/28 11:48:05;;;;;;;21.83;4.90;;;27.50;56.60;;;;;;5024940;28;20197;-66
2023/07/28 11:50:38;;;;;;;22.37;4.70;;;27.60;56.60;;;;;;5023146;28;20257;-69
2023/07/28 11:53:05;;;;;;;25.67;5.00;;;27.60;56.60;;;;;;5024632;28;20200;-66
2023/07/28 11:55:33;;;;;;;19.57;4.47;;;27.60;56.60;;;;;;5023462;28;20707;-66
2023/07/28 11:58:04;;;;;;;18.67;4.37;;;27.60;56.50;;;;;;5024207;28;20312;-69
2023/07/28 12:00:34;;;;;;;25.13;4.97;;;27.60;56.50;;;;;;5023165;28;20614;-66
2023/07/28 12:03:05;;;;;;;18.67;4.60;;;27.60;56.50;;;;;;5020118;28;20242;-72
2023/07/28 12:05:34;;;;;;;19.83;4.43;;;27.60;56.40;;;;;;5013393;28;20208;-72
2023/07/28 12:08:02;;;;;;;31.33;5.60;;;27.60;56.40;;;;;;5023544;28;20201;-65
2023/07/28 12:10:31;;;;;;;25.73;4.97;;;27.60;56.40;;;;;;5022880;28;20291;-72
2023/07/28 12:13:04;;;;;;;28.87;5.30;;;27.60;56.40;;;;;;5024821;28;20193;-74
2023/07/28 12:15:33;;;;;;;37.70;6.33;;;27.60;56.40;;;;;;5022259;28;20201;-66
2023/07/28 12:18:12;;;;;;;22.73;4.90;;;27.60;56.40;;;;;;5023443;28;20231;-70
2023/07/28 12:20:41;;;;;;;24.00;5.43;;;27.60;56.40;;;;;;5023867;28;20228;-65
2023/07/28 12:23:09;;;;;;;24.03;4.97;;;27.60;56.40;;;;;;5023852;28;20200;-75
2023/07/28 12:25:37;;;;;;;25.43;4.63;;;27.60;56.40;;;;;;5021119;28;20202;-74
2023/07/28 12:28:04;;;;;;;34.50;5.77;;;27.60;56.40;;;;;;5044120;28;20691;-65
2023/07/28 12:30:33;;;;;;;17.43;4.27;;;27.60;56.40;;;;;;5029525;28;20201;-73
2023/07/28 12:33:00;;;;;;;39.37;6.37;;;27.60;56.50;;;;;;5025824;28;20292;-69
2023/07/28 12:35:30;;;;;;;34.13;6.30;;;27.60;56.50;;;;;;5027435;28;20261;-66
2023/07/28 12:37:59;;;;;;;18.83;4.53;;;27.60;56.60;;;;;;5028654;28;20189;-66
2023/07/28 12:40:27;;;;;;;29.67;5.60;;;27.70;56.60;;;;;;5025367;28;20201;-65